sensor_id;sensor_type;location;lat;lon;timestamp;P1;durP1;ratioP1;P2;durP2;ratioP2
3415;SDS011;1721;51.238;9.562;2022-07-29T00:01:47;4.57;;;1.50;;
3415;SDS011;1721;51.238;9.562;2022-07-29T00:04:12;7.32;;;1.50;;
3415;SDS011;1721;51.238;9.562;2022-07-29T00:06:38;3.83;;;1.33;;
3415;SDS011;1721;51.238;9.562;2022-07-29T00:09:04;4.45;;;1.30;;
3415;SDS011;1721;51.238;9.562;2022-07-29T00:11:30;4.00;;;1.23;;
3415;SDS011;1721;51.238;9.562;2022-07-29T00:13:55;5.37;;;1.50;;
3415;SDS011;1721;51.238;9.562;2022-07-29T00:16:21;4.13;;;1.60;;
3415;SDS011;1721;51.238;9.562;2022-07-29T00:18:46;5.47;;;1.63;;
3415;SDS011;1721;51.238;9.562;2022-07-29T00:21:12;5.90;;;1.40;;
3415;SDS011;1721;51.238;9.562;2022-07-29T00:23:38;6.70;;;1.80;;
3415;SDS011;1721;51.238;9.562;2022-07-29T00:26:03;5.30;;;1.53;;
3415;SDS011;1721;51.238;9.562;2022-07-29T00:28:29;3.72;;;1.30;;
3415;SDS011;1721;51.238;9.562;2022-07-29T00:30:54;6.35;;;1.40;;
3415;SDS011;1721;51.238;9.562;2022-07-29T00:33:20;5.15;;;1.52;;
3415;SDS011;1721;51.238;9.562;2022-07-29T00:35:48;5.50;;;1.80;;
3415;SDS011;1721;51.238;9.562;2022-07-29T00:38:15;5.57;;;1.73;;
3415;SDS011;1721;51.238;9.562;2022-07-29T00:40:43;6.97;;;1.60;;
3415;SDS011;1721;51.238;9.562;2022-07-29T00:43:09;5.40;;;1.30;;
3415;SDS011;1721;51.238;9.562;2022-07-29T00:45:36;4.50;;;1.60;;
3415;SDS011;1721;51.238;9.562;2022-07-29T00:48:02;9.52;;;1.83;;
3415;SDS011;1721;51.238;9.562;2022-07-29T00:50:29;5.43;;;1.35;;
3415;SDS011;1721;51.238;9.562;2022-07-29T00:52:55;6.50;;;1.60;;
3415;SDS011;1721;51.238;9.562;2022-07-29T00:55:21;4.67;;;1.60;;
3415;SDS011;1721;51.238;9.562;2022-07-29T00:57:47;5.77;;;1.50;;
3415;SDS011;1721;51.238;9.562;2022-07-29T01:00:17;5.40;;;1.50;;
3415;SDS011;1721;51.238;9.562;2022-07-29T01:02:45;4.57;;;1.40;;
3415;SDS011;1721;51.238;9.562;2022-07-29T01:05:13;6.00;;;1.20;;
3415;SDS011;1721;51.238;9.562;2022-07-29T01:07:40;11.85;;;1.55;;
3415;SDS011;1721;51.238;9.562;2022-07-29T01:10:07;4.93;;;1.38;;
3415;SDS011;1721;51.238;9.562;2022-07-29T01:12:35;6.28;;;1.60;;
3415;SDS011;1721;51.238;9.562;2022-07-29T01:15:03;12.25;;;4.70;;
3415;SDS011;1721;51.238;9.562;2022-07-29T01:26:15;7.22;;;1.33;;
3415;SDS011;1721;51.238;9.562;2022-07-29T01:32:12;6.88;;;1.40;;
3415;SDS011;1721;51.238;9.562;2022-07-29T01:34:48;4.60;;;1.35;;
3415;SDS011;1721;51.238;9.562;2022-07-29T01:37:20;3.67;;;1.40;;
3415;SDS011;1721;51.238;9.562;2022-07-29T01:39:52;5.30;;;1.30;;
3415;SDS011;1721;51.238;9.562;2022-07-29T01:42:27;4.83;;;1.40;;
3415;SDS011;1721;51.238;9.562;2022-07-29T01:45:02;3.70;;;1.30;;
3415;SDS011;1721;51.238;9.562;2022-07-29T01:47:31;6.13;;;1.42;;
3415;SDS011;1721;51.238;9.562;2022-07-29T01:50:02;3.65;;;1.40;;
3415;SDS011;1721;51.238;9.562;2022-07-29T01:52:37;8.40;;;1.60;;
3415;SDS011;1721;51.238;9.562;2022-07-29T01:55:25;3.90;;;1.50;;
3415;SDS011;1721;51.238;9.562;2022-07-29T01:57:54;4.40;;;1.30;;
3415;SDS011;1721;51.238;9.562;2022-07-29T02:00:22;4.20;;;1.10;;
3415;SDS011;1721;51.238;9.562;2022-07-29T02:02:49;4.78;;;1.23;;
3415;SDS011;1721;51.238;9.562;2022-07-29T02:05:15;5.70;;;1.40;;
3415;SDS011;1721;51.238;9.562;2022-07-29T02:07:43;5.57;;;1.20;;
3415;SDS011;1721;51.238;9.562;2022-07-29T02:10:12;7.43;;;1.40;;
3415;SDS011;1721;51.238;9.562;2022-07-29T02:12:40;5.50;;;1.42;;
3415;SDS011;1721;51.238;9.562;2022-07-29T02:15:08;3.92;;;1.20;;
3415;SDS011;1721;51.238;9.562;2022-07-29T02:17:39;4.68;;;1.67;;
3415;SDS011;1721;51.238;9.562;2022-07-29T02:20:08;7.55;;;1.80;;
3415;SDS011;1721;51.238;9.562;2022-07-29T02:22:35;4.50;;;1.20;;
3415;SDS011;1721;51.238;9.562;2022-07-29T02:25:03;5.40;;;1.40;;
3415;SDS011;1721;51.238;9.562;2022-07-29T02:27:30;5.38;;;1.20;;
3415;SDS011;1721;51.238;9.562;2022-07-29T02:29:58;4.55;;;1.13;;
3415;SDS011;1721;51.238;9.562;2022-07-29T02:32:26;5.10;;;1.80;;
3415;SDS011;1721;51.238;9.562;2022-07-29T02:34:53;5.60;;;1.10;;
3415;SDS011;1721;51.238;9.562;2022-07-29T02:37:20;6.70;;;1.50;;
3415;SDS011;1721;51.238;9.562;2022-07-29T02:39:46;5.68;;;1.30;;
3415;SDS011;1721;51.238;9.562;2022-07-29T02:42:17;4.65;;;1.33;;
3415;SDS011;1721;51.238;9.562;2022-07-29T02:44:43;4.38;;;1.40;;
3415;SDS011;1721;51.238;9.562;2022-07-29T02:47:30;4.38;;;1.30;;
3415;SDS011;1721;51.238;9.562;2022-07-29T02:50:02;8.82;;;1.45;;
3415;SDS011;1721;51.238;9.562;2022-07-29T02:55:29;5.30;;;1.40;;
3415;SDS011;1721;51.238;9.562;2022-07-29T03:00:39;5.40;;;1.20;;
3415;SDS011;1721;51.238;9.562;2022-07-29T03:03:11;4.40;;;1.65;;
3415;SDS011;1721;51.238;9.562;2022-07-29T03:05:39;4.60;;;1.50;;
3415;SDS011;1721;51.238;9.562;2022-07-29T03:08:05;5.70;;;1.40;;
3415;SDS011;1721;51.238;9.562;2022-07-29T03:10:34;6.93;;;1.60;;
3415;SDS011;1721;51.238;9.562;2022-07-29T03:13:01;3.78;;;1.30;;
3415;SDS011;1721;51.238;9.562;2022-07-29T03:15:29;5.30;;;1.50;;
3415;SDS011;1721;51.238;9.562;2022-07-29T03:17:55;4.90;;;1.30;;
3415;SDS011;1721;51.238;9.562;2022-07-29T03:20:23;4.18;;;1.40;;
3415;SDS011;1721;51.238;9.562;2022-07-29T03:22:48;5.00;;;1.70;;
3415;SDS011;1721;51.238;9.562;2022-07-29T03:25:15;3.75;;;1.33;;
3415;SDS011;1721;51.238;9.562;2022-07-29T03:27:43;4.72;;;1.50;;
3415;SDS011;1721;51.238;9.562;2022-07-29T03:30:09;4.30;;;1.40;;
3415;SDS011;1721;51.238;9.562;2022-07-29T03:32:35;5.47;;;1.50;;
3415;SDS011;1721;51.238;9.562;2022-07-29T03:35:02;3.10;;;1.10;;
3415;SDS011;1721;51.238;9.562;2022-07-29T03:37:28;4.43;;;1.45;;
3415;SDS011;1721;51.238;9.562;2022-07-29T03:39:55;4.90;;;1.50;;
3415;SDS011;1721;51.238;9.562;2022-07-29T03:42:23;6.03;;;1.67;;
3415;SDS011;1721;51.238;9.562;2022-07-29T03:44:52;4.80;;;1.40;;
3415;SDS011;1721;51.238;9.562;2022-07-29T03:47:20;4.10;;;1.40;;
3415;SDS011;1721;51.238;9.562;2022-07-29T03:49:50;4.40;;;1.30;;
3415;SDS011;1721;51.238;9.562;2022-07-29T03:52:18;5.80;;;1.50;;
3415;SDS011;1721;51.238;9.562;2022-07-29T03:54:45;6.30;;;1.70;;
3415;SDS011;1721;51.238;9.562;2022-07-29T03:57:11;7.53;;;1.63;;
3415;SDS011;1721;51.238;9.562;2022-07-29T03:59:39;6.30;;;1.50;;
3415;SDS011;1721;51.238;9.562;2022-07-29T04:02:06;6.15;;;1.40;;
3415;SDS011;1721;51.238;9.562;2022-07-29T04:04:36;3.78;;;1.50;;
3415;SDS011;1721;51.238;9.562;2022-07-29T04:07:02;3.45;;;1.30;;
3415;SDS011;1721;51.238;9.562;2022-07-29T04:09:28;5.50;;;1.30;;
3415;SDS011;1721;51.238;9.562;2022-07-29T04:11:54;4.30;;;1.43;;
3415;SDS011;1721;51.238;9.562;2022-07-29T04:14:19;5.65;;;1.50;;
3415;SDS011;1721;51.238;9.562;2022-07-29T04:16:45;4.32;;;1.40;;
3415;SDS011;1721;51.238;9.562;2022-07-29T04:19:11;4.68;;;1.38;;
3415;SDS011;1721;51.238;9.562;2022-07-29T04:21:39;5.00;;;1.40;;
3415;SDS011;1721;51.238;9.562;2022-07-29T04:24:06;4.60;;;1.40;;
3415;SDS011;1721;51.238;9.562;2022-07-29T04:26:33;5.68;;;1.65;;
3415;SDS011;1721;51.238;9.562;2022-07-29T04:28:59;6.13;;;1.67;;
3415;SDS011;1721;51.238;9.562;2022-07-29T04:31:24;4.13;;;1.50;;
3415;SDS011;1721;51.238;9.562;2022-07-29T04:33:50;4.63;;;1.70;;
3415;SDS011;1721;51.238;9.562;2022-07-29T04:36:15;6.47;;;1.60;;
3415;SDS011;1721;51.238;9.562;2022-07-29T04:38:41;6.90;;;1.43;;
3415;SDS011;1721;51.238;9.562;2022-07-29T04:41:07;6.53;;;1.57;;
3415;SDS011;1721;51.238;9.562;2022-07-29T04:43:33;6.03;;;1.60;;
3415;SDS011;1721;51.238;9.562;2022-07-29T04:46:05;6.60;;;1.38;;
3415;SDS011;1721;51.238;9.562;2022-07-29T04:48:31;5.57;;;1.30;;
3415;SDS011;1721;51.238;9.562;2022-07-29T04:50:57;5.65;;;1.40;;
3415;SDS011;1721;51.238;9.562;2022-07-29T04:53:23;7.55;;;1.60;;
3415;SDS011;1721;51.238;9.562;2022-07-29T04:55:49;4.47;;;1.50;;
3415;SDS011;1721;51.238;9.562;2022-07-29T04:58:14;7.30;;;1.70;;
3415;SDS011;1721;51.238;9.562;2022-07-29T05:00:40;4.75;;;1.20;;
3415;SDS011;1721;51.238;9.562;2022-07-29T05:03:06;8.45;;;1.30;;
3415;SDS011;1721;51.238;9.562;2022-07-29T05:05:31;3.50;;;1.30;;
3415;SDS011;1721;51.238;9.562;2022-07-29T05:07:57;4.80;;;1.40;;
3415;SDS011;1721;51.238;9.562;2022-07-29T05:10:23;3.88;;;1.50;;
3415;SDS011;1721;51.238;9.562;2022-07-29T05:12:49;3.30;;;1.30;;
3415;SDS011;1721;51.238;9.562;2022-07-29T05:15:14;4.50;;;1.50;;
3415;SDS011;1721;51.238;9.562;2022-07-29T05:17:40;6.95;;;1.77;;
3415;SDS011;1721;51.238;9.562;2022-07-29T05:20:06;5.05;;;1.80;;
3415;SDS011;1721;51.238;9.562;2022-07-29T05:22:32;4.95;;;1.52;;
3415;SDS011;1721;51.238;9.562;2022-07-29T05:24:57;3.20;;;1.40;;
3415;SDS011;1721;51.238;9.562;2022-07-29T05:27:23;3.20;;;1.30;;
3415;SDS011;1721;51.238;9.562;2022-07-29T05:29:48;9.60;;;1.50;;
3415;SDS011;1721;51.238;9.562;2022-07-29T05:32:14;5.60;;;1.70;;
3415;SDS011;1721;51.238;9.562;2022-07-29T05:34:40;4.85;;;1.55;;
3415;SDS011;1721;51.238;9.562;2022-07-29T05:37:06;5.68;;;1.45;;
3415;SDS011;1721;51.238;9.562;2022-07-29T05:39:31;5.43;;;1.50;;
3415;SDS011;1721;51.238;9.562;2022-07-29T05:41:57;4.90;;;1.30;;
3415;SDS011;1721;51.238;9.562;2022-07-29T05:44:22;4.43;;;1.50;;
3415;SDS011;1721;51.238;9.562;2022-07-29T05:46:48;6.33;;;1.40;;
3415;SDS011;1721;51.238;9.562;2022-07-29T05:49:14;5.43;;;1.50;;
3415;SDS011;1721;51.238;9.562;2022-07-29T05:51:39;4.43;;;1.37;;
3415;SDS011;1721;51.238;9.562;2022-07-29T05:54:05;3.13;;;1.30;;
3415;SDS011;1721;51.238;9.562;2022-07-29T05:56:31;6.05;;;1.30;;
3415;SDS011;1721;51.238;9.562;2022-07-29T05:58:56;3.95;;;1.42;;
3415;SDS011;1721;51.238;9.562;2022-07-29T06:01:22;5.30;;;1.48;;
3415;SDS011;1721;51.238;9.562;2022-07-29T06:03:47;6.30;;;1.80;;
3415;SDS011;1721;51.238;9.562;2022-07-29T06:06:13;4.60;;;1.40;;
3415;SDS011;1721;51.238;9.562;2022-07-29T06:08:38;4.43;;;1.20;;
3415;SDS011;1721;51.238;9.562;2022-07-29T06:11:05;7.97;;;1.57;;
3415;SDS011;1721;51.238;9.562;2022-07-29T06:13:32;3.58;;;1.30;;
3415;SDS011;1721;51.238;9.562;2022-07-29T06:15:57;6.05;;;1.60;;
3415;SDS011;1721;51.238;9.562;2022-07-29T06:18:23;7.60;;;1.70;;
3415;SDS011;1721;51.238;9.562;2022-07-29T06:20:52;6.30;;;1.40;;
3415;SDS011;1721;51.238;9.562;2022-07-29T06:23:18;4.40;;;1.40;;
3415;SDS011;1721;51.238;9.562;2022-07-29T06:25:44;5.50;;;1.40;;
3415;SDS011;1721;51.238;9.562;2022-07-29T06:28:10;5.93;;;1.40;;
3415;SDS011;1721;51.238;9.562;2022-07-29T06:30:35;4.90;;;1.42;;
3415;SDS011;1721;51.238;9.562;2022-07-29T06:33:01;6.30;;;1.50;;
3415;SDS011;1721;51.238;9.562;2022-07-29T06:35:27;5.25;;;1.40;;
3415;SDS011;1721;51.238;9.562;2022-07-29T06:37:53;5.68;;;1.40;;
3415;SDS011;1721;51.238;9.562;2022-07-29T06:40:19;4.30;;;1.40;;
3415;SDS011;1721;51.238;9.562;2022-07-29T06:43:17;3.23;;;1.20;;
3415;SDS011;1721;51.238;9.562;2022-07-29T06:45:42;5.57;;;1.38;;
3415;SDS011;1721;51.238;9.562;2022-07-29T06:48:09;4.05;;;1.15;;
3415;SDS011;1721;51.238;9.562;2022-07-29T06:50:34;4.28;;;1.27;;
3415;SDS011;1721;51.238;9.562;2022-07-29T06:53:00;4.10;;;1.30;;
3415;SDS011;1721;51.238;9.562;2022-07-29T06:55:26;5.50;;;1.60;;
3415;SDS011;1721;51.238;9.562;2022-07-29T06:57:51;6.13;;;1.57;;
3415;SDS011;1721;51.238;9.562;2022-07-29T07:00:17;8.27;;;1.70;;
3415;SDS011;1721;51.238;9.562;2022-07-29T07:02:43;5.53;;;1.60;;
3415;SDS011;1721;51.238;9.562;2022-07-29T07:05:08;5.78;;;1.77;;
3415;SDS011;1721;51.238;9.562;2022-07-29T07:07:34;4.13;;;1.30;;
3415;SDS011;1721;51.238;9.562;2022-07-29T07:09:59;6.20;;;1.40;;
3415;SDS011;1721;51.238;9.562;2022-07-29T07:12:25;6.93;;;1.67;;
3415;SDS011;1721;51.238;9.562;2022-07-29T07:14:51;6.83;;;1.47;;
3415;SDS011;1721;51.238;9.562;2022-07-29T07:17:16;5.53;;;1.60;;
3415;SDS011;1721;51.238;9.562;2022-07-29T07:19:42;7.25;;;1.27;;
3415;SDS011;1721;51.238;9.562;2022-07-29T07:22:07;5.17;;;1.30;;
3415;SDS011;1721;51.238;9.562;2022-07-29T07:24:33;8.60;;;1.50;;
3415;SDS011;1721;51.238;9.562;2022-07-29T07:26:58;6.00;;;1.50;;
3415;SDS011;1721;51.238;9.562;2022-07-29T07:29:24;3.60;;;1.30;;
3415;SDS011;1721;51.238;9.562;2022-07-29T07:31:50;4.15;;;1.42;;
3415;SDS011;1721;51.238;9.562;2022-07-29T07:34:15;5.05;;;1.50;;
3415;SDS011;1721;51.238;9.562;2022-07-29T07:36:41;4.57;;;1.38;;
3415;SDS011;1721;51.238;9.562;2022-07-29T07:39:06;9.02;;;1.40;;
3415;SDS011;1721;51.238;9.562;2022-07-29T07:41:32;4.97;;;1.30;;
3415;SDS011;1721;51.238;9.562;2022-07-29T07:43:57;4.30;;;1.33;;
3415;SDS011;1721;51.238;9.562;2022-07-29T07:46:23;3.85;;;1.33;;
3415;SDS011;1721;51.238;9.562;2022-07-29T07:48:49;5.90;;;1.30;;
3415;SDS011;1721;51.238;9.562;2022-07-29T07:51:15;3.87;;;1.50;;
3415;SDS011;1721;51.238;9.562;2022-07-29T07:53:40;8.20;;;1.47;;
3415;SDS011;1721;51.238;9.562;2022-07-29T07:56:06;4.47;;;1.60;;
3415;SDS011;1721;51.238;9.562;2022-07-29T07:58:32;4.30;;;1.30;;
3415;SDS011;1721;51.238;9.562;2022-07-29T08:00:57;6.57;;;1.60;;
3415;SDS011;1721;51.238;9.562;2022-07-29T08:03:23;8.63;;;1.80;;
3415;SDS011;1721;51.238;9.562;2022-07-29T08:05:48;6.22;;;1.70;;
3415;SDS011;1721;51.238;9.562;2022-07-29T08:08:16;6.43;;;1.73;;
3415;SDS011;1721;51.238;9.562;2022-07-29T08:10:42;5.90;;;1.63;;
3415;SDS011;1721;51.238;9.562;2022-07-29T08:13:17;7.43;;;1.83;;
3415;SDS011;1721;51.238;9.562;2022-07-29T08:15:44;4.38;;;1.50;;
3415;SDS011;1721;51.238;9.562;2022-07-29T08:18:11;6.95;;;1.55;;
3415;SDS011;1721;51.238;9.562;2022-07-29T08:20:37;5.65;;;1.95;;
3415;SDS011;1721;51.238;9.562;2022-07-29T08:23:05;6.10;;;1.80;;
3415;SDS011;1721;51.238;9.562;2022-07-29T08:25:33;8.10;;;1.90;;
3415;SDS011;1721;51.238;9.562;2022-07-29T08:28:01;3.45;;;1.52;;
3415;SDS011;1721;51.238;9.562;2022-07-29T08:30:26;5.60;;;1.90;;
3415;SDS011;1721;51.238;9.562;2022-07-29T08:32:52;5.13;;;1.60;;
3415;SDS011;1721;51.238;9.562;2022-07-29T08:35:18;7.77;;;1.60;;
3415;SDS011;1721;51.238;9.562;2022-07-29T08:37:44;7.82;;;2.15;;
3415;SDS011;1721;51.238;9.562;2022-07-29T08:40:10;8.65;;;2.15;;
3415;SDS011;1721;51.238;9.562;2022-07-29T08:42:36;6.57;;;2.00;;
3415;SDS011;1721;51.238;9.562;2022-07-29T08:45:02;7.23;;;1.70;;
3415;SDS011;1721;51.238;9.562;2022-07-29T08:47:29;5.47;;;1.90;;
3415;SDS011;1721;51.238;9.562;2022-07-29T08:49:54;9.30;;;2.05;;
3415;SDS011;1721;51.238;9.562;2022-07-29T08:52:20;7.07;;;2.00;;
3415;SDS011;1721;51.238;9.562;2022-07-29T08:54:49;4.50;;;1.60;;
3415;SDS011;1721;51.238;9.562;2022-07-29T08:57:16;6.35;;;1.70;;
3415;SDS011;1721;51.238;9.562;2022-07-29T08:59:43;6.32;;;1.90;;
3415;SDS011;1721;51.238;9.562;2022-07-29T09:02:12;10.82;;;2.05;;
3415;SDS011;1721;51.238;9.562;2022-07-29T09:04:44;7.82;;;1.98;;
3415;SDS011;1721;51.238;9.562;2022-07-29T09:07:10;6.30;;;1.93;;
3415;SDS011;1721;51.238;9.562;2022-07-29T09:09:40;6.88;;;1.70;;
3415;SDS011;1721;51.238;9.562;2022-07-29T09:12:07;4.82;;;1.70;;
3415;SDS011;1721;51.238;9.562;2022-07-29T09:14:33;4.78;;;1.65;;
3415;SDS011;1721;51.238;9.562;2022-07-29T09:16:59;6.05;;;1.40;;
3415;SDS011;1721;51.238;9.562;2022-07-29T09:21:53;5.53;;;1.90;;
3415;SDS011;1721;51.238;9.562;2022-07-29T09:24:46;5.68;;;1.80;;
3415;SDS011;1721;51.238;9.562;2022-07-29T09:27:24;5.30;;;1.70;;
3415;SDS011;1721;51.238;9.562;2022-07-29T09:30:13;5.18;;;1.83;;
3415;SDS011;1721;51.238;9.562;2022-07-29T09:33:02;5.80;;;1.87;;
3415;SDS011;1721;51.238;9.562;2022-07-29T09:35:26;6.78;;;1.70;;
3415;SDS011;1721;51.238;9.562;2022-07-29T09:37:52;10.57;;;2.10;;
3415;SDS011;1721;51.238;9.562;2022-07-29T09:40:20;7.13;;;1.90;;
3415;SDS011;1721;51.238;9.562;2022-07-29T09:42:48;4.90;;;1.90;;
3415;SDS011;1721;51.238;9.562;2022-07-29T09:45:25;4.80;;;1.75;;
3415;SDS011;1721;51.238;9.562;2022-07-29T09:47:55;10.35;;;1.90;;
3415;SDS011;1721;51.238;9.562;2022-07-29T09:50:34;4.13;;;1.77;;
3415;SDS011;1721;51.238;9.562;2022-07-29T09:53:02;5.90;;;1.73;;
3415;SDS011;1721;51.238;9.562;2022-07-29T09:55:28;3.80;;;1.60;;
3415;SDS011;1721;51.238;9.562;2022-07-29T09:57:53;7.28;;;1.90;;
3415;SDS011;1721;51.238;9.562;2022-07-29T10:00:42;4.70;;;2.00;;
3415;SDS011;1721;51.238;9.562;2022-07-29T10:03:08;4.40;;;1.80;;
3415;SDS011;1721;51.238;9.562;2022-07-29T10:05:34;4.60;;;1.80;;
3415;SDS011;1721;51.238;9.562;2022-07-29T10:07:59;7.40;;;1.80;;
3415;SDS011;1721;51.238;9.562;2022-07-29T10:10:26;7.93;;;2.00;;
3415;SDS011;1721;51.238;9.562;2022-07-29T10:12:53;6.75;;;1.73;;
3415;SDS011;1721;51.238;9.562;2022-07-29T10:15:24;4.85;;;1.90;;
3415;SDS011;1721;51.238;9.562;2022-07-29T10:17:51;5.25;;;1.90;;
3415;SDS011;1721;51.238;9.562;2022-07-29T10:20:18;8.77;;;2.08;;
3415;SDS011;1721;51.238;9.562;2022-07-29T10:22:44;7.00;;;2.10;;
3415;SDS011;1721;51.238;9.562;2022-07-29T10:25:12;4.40;;;1.75;;
3415;SDS011;1721;51.238;9.562;2022-07-29T10:27:38;7.40;;;1.90;;
3415;SDS011;1721;51.238;9.562;2022-07-29T10:30:04;5.72;;;1.88;;
3415;SDS011;1721;51.238;9.562;2022-07-29T10:32:50;5.72;;;1.80;;
3415;SDS011;1721;51.238;9.562;2022-07-29T10:38:21;6.90;;;1.60;;
3415;SDS011;1721;51.238;9.562;2022-07-29T10:43:52;6.40;;;1.55;;
3415;SDS011;1721;51.238;9.562;2022-07-29T10:46:25;9.15;;;2.00;;
3415;SDS011;1721;51.238;9.562;2022-07-29T10:49:09;6.63;;;1.70;;
3415;SDS011;1721;51.238;9.562;2022-07-29T10:57:14;7.00;;;1.80;;
3415;SDS011;1721;51.238;9.562;2022-07-29T11:08:16;4.90;;;1.90;;
3415;SDS011;1721;51.238;9.562;2022-07-29T11:10:33;6.45;;;1.70;;
3415;SDS011;1721;51.238;9.562;2022-07-29T11:12:59;4.30;;;1.90;;
3415;SDS011;1721;51.238;9.562;2022-07-29T11:15:24;5.30;;;1.90;;
3415;SDS011;1721;51.238;9.562;2022-07-29T11:23:26;4.05;;;1.70;;
3415;SDS011;1721;51.238;9.562;2022-07-29T11:31:16;7.88;;;1.70;;
3415;SDS011;1721;51.238;9.562;2022-07-29T11:33:44;5.45;;;1.80;;
3415;SDS011;1721;51.238;9.562;2022-07-29T11:36:11;4.30;;;2.00;;
3415;SDS011;1721;51.238;9.562;2022-07-29T11:38:38;4.70;;;1.70;;
3415;SDS011;1721;51.238;9.562;2022-07-29T11:44:10;3.80;;;1.80;;
3415;SDS011;1721;51.238;9.562;2022-07-29T11:46:45;7.88;;;1.70;;
3415;SDS011;1721;51.238;9.562;2022-07-29T11:49:18;6.28;;;1.98;;
3415;SDS011;1721;51.238;9.562;2022-07-29T11:51:50;7.85;;;1.83;;
3415;SDS011;1721;51.238;9.562;2022-07-29T11:54:30;4.60;;;1.80;;
3415;SDS011;1721;51.238;9.562;2022-07-29T11:56:58;4.15;;;1.70;;
3415;SDS011;1721;51.238;9.562;2022-07-29T11:59:24;4.10;;;1.80;;
3415;SDS011;1721;51.238;9.562;2022-07-29T12:01:56;8.75;;;2.00;;
3415;SDS011;1721;51.238;9.562;2022-07-29T12:04:24;3.85;;;1.80;;
3415;SDS011;1721;51.238;9.562;2022-07-29T12:06:51;4.57;;;2.00;;
3415;SDS011;1721;51.238;9.562;2022-07-29T12:09:21;6.93;;;1.65;;
3415;SDS011;1721;51.238;9.562;2022-07-29T12:11:48;8.30;;;2.70;;
3415;SDS011;1721;51.238;9.562;2022-07-29T12:14:38;4.40;;;1.60;;
3415;SDS011;1721;51.238;9.562;2022-07-29T12:17:24;8.20;;;1.80;;
3415;SDS011;1721;51.238;9.562;2022-07-29T12:20:08;6.60;;;2.00;;
3415;SDS011;1721;51.238;9.562;2022-07-29T12:22:37;11.80;;;2.10;;
3415;SDS011;1721;51.238;9.562;2022-07-29T12:25:09;4.18;;;2.00;;
3415;SDS011;1721;51.238;9.562;2022-07-29T12:27:36;6.70;;;1.95;;
3415;SDS011;1721;51.238;9.562;2022-07-29T12:30:07;5.40;;;1.90;;
3415;SDS011;1721;51.238;9.562;2022-07-29T12:35:09;5.28;;;1.90;;
3415;SDS011;1721;51.238;9.562;2022-07-29T12:37:45;6.80;;;2.00;;
3415;SDS011;1721;51.238;9.562;2022-07-29T12:40:13;8.18;;;2.30;;
3415;SDS011;1721;51.238;9.562;2022-07-29T12:42:41;6.20;;;2.30;;
3415;SDS011;1721;51.238;9.562;2022-07-29T12:45:29;6.03;;;2.10;;
3415;SDS011;1721;51.238;9.562;2022-07-29T12:47:55;6.60;;;2.20;;
3415;SDS011;1721;51.238;9.562;2022-07-29T12:50:21;6.10;;;2.20;;
3415;SDS011;1721;51.238;9.562;2022-07-29T12:52:47;6.73;;;2.03;;
3415;SDS011;1721;51.238;9.562;2022-07-29T12:55:13;5.97;;;2.13;;
3415;SDS011;1721;51.238;9.562;2022-07-29T12:57:49;5.10;;;1.95;;
3415;SDS011;1721;51.238;9.562;2022-07-29T13:00:21;6.10;;;2.20;;
3415;SDS011;1721;51.238;9.562;2022-07-29T13:02:56;5.65;;;2.30;;
3415;SDS011;1721;51.238;9.562;2022-07-29T13:05:23;5.43;;;2.00;;
3415;SDS011;1721;51.238;9.562;2022-07-29T13:07:49;4.50;;;2.33;;
3415;SDS011;1721;51.238;9.562;2022-07-29T13:10:19;6.25;;;2.15;;
3415;SDS011;1721;51.238;9.562;2022-07-29T13:13:02;4.55;;;2.30;;
3415;SDS011;1721;51.238;9.562;2022-07-29T13:15:39;3.83;;;1.90;;
3415;SDS011;1721;51.238;9.562;2022-07-29T13:20:53;5.80;;;2.22;;
3415;SDS011;1721;51.238;9.562;2022-07-29T13:23:19;7.00;;;2.20;;
3415;SDS011;1721;51.238;9.562;2022-07-29T13:25:45;6.00;;;1.93;;
3415;SDS011;1721;51.238;9.562;2022-07-29T13:28:10;6.10;;;2.30;;
3415;SDS011;1721;51.238;9.562;2022-07-29T13:30:36;4.20;;;2.20;;
3415;SDS011;1721;51.238;9.562;2022-07-29T13:33:06;4.80;;;2.00;;
3415;SDS011;1721;51.238;9.562;2022-07-29T13:35:31;3.50;;;1.63;;
3415;SDS011;1721;51.238;9.562;2022-07-29T13:37:57;7.40;;;2.10;;
3415;SDS011;1721;51.238;9.562;2022-07-29T13:40:23;6.93;;;2.50;;
3415;SDS011;1721;51.238;9.562;2022-07-29T13:42:48;6.03;;;2.23;;
3415;SDS011;1721;51.238;9.562;2022-07-29T13:45:14;7.93;;;2.10;;
3415;SDS011;1721;51.238;9.562;2022-07-29T13:47:40;5.70;;;2.23;;
3415;SDS011;1721;51.238;9.562;2022-07-29T13:50:06;4.00;;;2.00;;
3415;SDS011;1721;51.238;9.562;2022-07-29T13:52:33;6.65;;;2.70;;
3415;SDS011;1721;51.238;9.562;2022-07-29T13:54:59;6.63;;;2.20;;
3415;SDS011;1721;51.238;9.562;2022-07-29T13:57:25;6.43;;;2.10;;
3415;SDS011;1721;51.238;9.562;2022-07-29T13:59:50;6.10;;;2.30;;
3415;SDS011;1721;51.238;9.562;2022-07-29T14:02:16;5.20;;;2.20;;
3415;SDS011;1721;51.238;9.562;2022-07-29T14:04:41;5.23;;;2.20;;
3415;SDS011;1721;51.238;9.562;2022-07-29T14:07:07;5.07;;;2.10;;
3415;SDS011;1721;51.238;9.562;2022-07-29T14:09:33;6.27;;;2.40;;
3415;SDS011;1721;51.238;9.562;2022-07-29T14:11:58;9.87;;;2.40;;
3415;SDS011;1721;51.238;9.562;2022-07-29T14:14:24;4.90;;;2.00;;
3415;SDS011;1721;51.238;9.562;2022-07-29T14:16:49;5.80;;;2.00;;
3415;SDS011;1721;51.238;9.562;2022-07-29T14:19:15;5.27;;;2.23;;
3415;SDS011;1721;51.238;9.562;2022-07-29T14:21:41;5.80;;;1.92;;
3415;SDS011;1721;51.238;9.562;2022-07-29T14:24:06;5.88;;;2.30;;
3415;SDS011;1721;51.238;9.562;2022-07-29T14:26:32;6.70;;;2.30;;
3415;SDS011;1721;51.238;9.562;2022-07-29T14:28:57;8.90;;;2.70;;
3415;SDS011;1721;51.238;9.562;2022-07-29T14:31:23;4.97;;;2.43;;
3415;SDS011;1721;51.238;9.562;2022-07-29T14:33:48;5.03;;;2.30;;
3415;SDS011;1721;51.238;9.562;2022-07-29T14:36:14;4.63;;;2.20;;
3415;SDS011;1721;51.238;9.562;2022-07-29T14:38:40;5.00;;;2.38;;
3415;SDS011;1721;51.238;9.562;2022-07-29T14:41:06;4.28;;;1.90;;
3415;SDS011;1721;51.238;9.562;2022-07-29T14:43:32;5.75;;;2.17;;
3415;SDS011;1721;51.238;9.562;2022-07-29T14:45:59;6.25;;;2.22;;
3415;SDS011;1721;51.238;9.562;2022-07-29T14:48:25;7.07;;;2.30;;
3415;SDS011;1721;51.238;9.562;2022-07-29T14:50:50;4.63;;;2.40;;
3415;SDS011;1721;51.238;9.562;2022-07-29T14:53:16;4.33;;;2.30;;
3415;SDS011;1721;51.238;9.562;2022-07-29T14:55:42;6.50;;;2.50;;
3415;SDS011;1721;51.238;9.562;2022-07-29T14:58:08;6.57;;;2.22;;
3415;SDS011;1721;51.238;9.562;2022-07-29T15:00:34;6.97;;;2.55;;
3415;SDS011;1721;51.238;9.562;2022-07-29T15:03:01;7.90;;;2.22;;
3415;SDS011;1721;51.238;9.562;2022-07-29T15:05:27;7.63;;;2.10;;
3415;SDS011;1721;51.238;9.562;2022-07-29T15:07:54;7.85;;;2.40;;
3415;SDS011;1721;51.238;9.562;2022-07-29T15:10:20;4.88;;;2.05;;
3415;SDS011;1721;51.238;9.562;2022-07-29T15:12:46;5.57;;;2.20;;
3415;SDS011;1721;51.238;9.562;2022-07-29T15:15:11;5.22;;;2.20;;
3415;SDS011;1721;51.238;9.562;2022-07-29T15:17:37;4.47;;;2.10;;
3415;SDS011;1721;51.238;9.562;2022-07-29T15:20:03;7.47;;;1.97;;
3415;SDS011;1721;51.238;9.562;2022-07-29T15:22:29;4.95;;;2.10;;
3415;SDS011;1721;51.238;9.562;2022-07-29T15:24:55;5.00;;;2.20;;
3415;SDS011;1721;51.238;9.562;2022-07-29T15:27:20;10.52;;;2.28;;
3415;SDS011;1721;51.238;9.562;2022-07-29T15:29:46;4.00;;;1.90;;
3415;SDS011;1721;51.238;9.562;2022-07-29T15:32:11;4.03;;;2.00;;
3415;SDS011;1721;51.238;9.562;2022-07-29T15:34:37;8.90;;;2.47;;
3415;SDS011;1721;51.238;9.562;2022-07-29T15:37:03;6.93;;;2.17;;
3415;SDS011;1721;51.238;9.562;2022-07-29T15:39:29;8.00;;;2.33;;
3415;SDS011;1721;51.238;9.562;2022-07-29T15:41:55;4.30;;;2.20;;
3415;SDS011;1721;51.238;9.562;2022-07-29T15:44:21;5.30;;;2.40;;
3415;SDS011;1721;51.238;9.562;2022-07-29T15:46:46;4.00;;;2.20;;
3415;SDS011;1721;51.238;9.562;2022-07-29T15:49:28;6.38;;;2.20;;
3415;SDS011;1721;51.238;9.562;2022-07-29T15:52:00;4.97;;;2.20;;
3415;SDS011;1721;51.238;9.562;2022-07-29T15:54:28;5.70;;;2.67;;
3415;SDS011;1721;51.238;9.562;2022-07-29T15:56:54;12.55;;;2.90;;
3415;SDS011;1721;51.238;9.562;2022-07-29T15:59:20;11.23;;;2.70;;
3415;SDS011;1721;51.238;9.562;2022-07-29T16:01:47;5.88;;;2.63;;
3415;SDS011;1721;51.238;9.562;2022-07-29T16:04:13;8.50;;;2.97;;
3415;SDS011;1721;51.238;9.562;2022-07-29T16:06:40;8.43;;;2.70;;
3415;SDS011;1721;51.238;9.562;2022-07-29T16:09:06;5.22;;;2.45;;
3415;SDS011;1721;51.238;9.562;2022-07-29T16:11:31;5.28;;;2.45;;
3415;SDS011;1721;51.238;9.562;2022-07-29T16:13:57;6.60;;;2.47;;
3415;SDS011;1721;51.238;9.562;2022-07-29T16:16:23;7.38;;;2.47;;
3415;SDS011;1721;51.238;9.562;2022-07-29T16:18:49;5.63;;;2.60;;